Terminal Aerodrome Forecast
Issued by NWS Twin Cities, MN

Home | Current Version | Previous Version | Text Only | Print | Product List | Glossary Off
Versions: 1 2 3 4 5 6 7 8 9 10 11 12 13 14 15 16 17 18 19

000
FTUS43 KMPX 260533
TAFSTC
TAF
KSTC 260533Z 2606/2706 11004KT P6SM -SHRA VCTS SCT050 BKN090CB
     FM260730 14004KT P6SM FEW005 BKN150
     FM261000 16005KT 4SM BR FEW250
     FM261230 23007KT P6SM SKC
     FM270000 VRB03KT P6SM SCT100 BKN250=

USA.gov is the U.S. government's official web portal to all federal, state and local government web resources and services.